EW8292 Weather Reports


time (UTC)temp
C
wind
direction
speed
KPH
gust
KPH
rain 1hr
cm
rain 24hr
cm
rain mn
cm
humidity
%
barometer
mb
20260505140514 22 34 0.0 8.0 0.00 0.00 0.00 58 1011.5
20260505124533 18 75 0.0 3.2 0.00 0.00 0.00 67 1012.1
20260505124003 17 53 0.0 1.6 0.00 0.00 0.00 67 1012.1
20260505123543 17 75 0.0 1.6 0.00 0.00 0.00 67 1012.0
20260505123104 17 56 0.0 1.6 0.00 0.00 0.00 68 1012.0
20260505123000 17 60 0.0 1.6 0.00 0.00 0.00 68 1012.0
20260505122520 17 58 0.0 1.6 0.00 0.00 0.00 68 1012.0
20260505122059 17 328 0.0 8.0 0.00 0.00 0.00 68 1011.9
20260505121540 17 60 0.0 3.2 0.00 0.00 0.00 68 1012.0
20260505121025 17 55 0.0 0.0 0.00 0.00 0.00 69 1011.9
20260505120557 16 58 0.0 0.0 0.00 0.00 0.00 69 1011.9
20260505120501 16 57 0.0 0.0 0.00 0.00 0.00 69 1011.9
20260505120051 16 36 0.0 0.0 0.00 0.00 0.00 69 1011.9
20260505115552 16 25 0.0 0.0 0.00 0.00 0.00 70 1011.8
20260505115016 16 24 0.0 1.6 0.00 0.00 0.00 70 1011.8
20260505114556 16 75 0.0 1.6 0.00 0.00 0.00 70 1011.8
20260505114019 16 105 0.0 1.6 0.00 0.00 0.00 70 1011.7
20260505113558 16 39 0.0 1.6 0.00 0.00 0.00 70 1011.7
20260505113021 16 28 0.0 3.2 0.00 0.00 0.00 71 1011.7
20260505112554 16 84 0.0 3.2 0.00 0.00 0.00 71 1011.6
20260505112018 15 27 0.0 1.6 0.00 0.00 0.00 71 1011.7
20260505111543 15 19 0.0 1.6 0.00 0.00 0.00 72 1011.5
20260505111022 15 42 0.0 1.6 0.00 0.00 0.00 72 1011.4
20260505110544 15 23 0.0 1.6 0.00 0.00 0.00 72 1011.4
20260505102008 15 54 0.0 0.0 0.00 0.00 0.00 73 1011.0
20260505101546 15 13 0.0 1.6 0.00 0.00 0.00 73 1010.9
20260505101028 15 52 0.0 1.6 0.00 0.00 0.00 74 1010.9
20260505100506 15 60 0.0 0.0 0.00 0.00 0.00 74 1010.8
20260505100045 15 41 0.0 0.0 0.00 0.00 0.00 74 1010.8
20260505095523 15 53 0.0 0.0 0.00 0.00 0.00 74 1010.7
20260505095042 15 49 0.0 0.0 0.00 0.00 0.00 74 1010.7
20260505094536 15 58 0.0 0.0 0.00 0.00 0.00 74 1010.7
20260505094013 15 46 0.0 0.0 0.00 0.00 0.00 74 1010.7
20260505093536 15 25 0.0 0.0 0.00 0.00 0.00 74 1010.7
20260505093017 15 58 0.0 0.0 0.00 0.00 0.00 73 1010.7
20260505092538 15 41 0.0 0.0 0.00 0.00 0.00 73 1010.7
20260505092057 15 113 0.0 1.6 0.00 0.00 0.00 73 1010.6
20260505091551 15 39 0.0 1.6 0.00 0.00 0.00 73 1010.6
20260505091100 15 44 0.0 0.0 0.00 0.00 0.00 73 1010.6
20260505091002 15 44 0.0 0.0 0.00 0.00 0.00 73 1010.6
20260505090524 15 58 0.0 0.0 0.00 0.00 0.00 73 1010.6
20260505090008 15 64 0.0 0.0 0.00 0.00 0.00 73 1010.7
20260505085526 15 63 0.0 0.0 0.00 0.00 0.00 73 1010.7
20260505085006 15 11 0.0 3.2 0.00 0.00 0.00 72 1010.7
20260505084536 15 70 0.0 3.2 0.00 0.00 0.00 73 1010.7
20260505084057 15 53 0.0 0.0 0.00 0.00 0.00 73 1010.7
20260505083540 15 32 0.0 0.0 0.00 0.00 0.00 72 1010.6
20260505083111 15 36 0.0 0.0 0.00 0.00 0.00 72 1010.7
20260505083002 15 36 0.0 0.0 0.00 0.00 0.00 72 1010.6
20260505082542 15 56 0.0 1.6 0.00 0.00 0.00 72 1010.6
20260505082004 15 44 0.0 0.0 0.00 0.00 0.00 72 1010.6
20260505081542 15 48 0.0 0.0 0.00 0.00 0.00 72 1010.6
20260505081007 15 20 0.0 0.0 0.00 0.00 0.00 72 1010.6
20260505080529 15 70 0.0 0.0 0.00 0.00 0.00 71 1010.7
20260505080007 16 72 0.0 1.6 0.00 0.00 0.00 71 1010.6
20260505075530 16 39 0.0 0.0 0.00 0.00 0.00 71 1010.6
20260505075006 16 3 0.0 1.6 0.00 0.00 0.00 71 1010.6
20260505074533 16 46 0.0 1.6 0.00 0.00 0.00 70 1010.6
20260505074006 16 54 0.0 1.6 0.00 0.00 0.00 70 1010.6
20260505073530 16 43 0.0 0.0 0.00 0.00 0.00 70 1010.5
20260505073010 16 68 0.0 1.6 0.00 0.00 0.00 70 1010.5
20260505072534 16 63 0.0 1.6 0.00 0.00 0.00 70 1010.3
20260505072051 16 46 0.0 0.0 0.00 0.00 0.00 71 1010.5
20260505071520 16 60 0.0 0.0 0.00 0.00 0.00 71 1010.5
20260505071054 16 38 0.0 0.0 0.00 0.00 0.00 71 1010.4
20260505070524 16 60 0.0 0.0 0.00 0.00 0.00 71 1010.3
20260505070106 16 51 0.0 0.0 0.00 0.00 0.00 71 1010.4
20260505065521 16 32 0.0 0.0 0.00 0.00 0.00 71 1010.3
20260505065058 15 59 0.0 0.0 0.00 0.00 0.00 72 1010.3
20260505064539 15 70 0.0 0.0 0.00 0.00 0.00 72 1010.2
20260505064020 15 23 0.0 0.0 0.00 0.00 0.00 72 1010.3
20260505063553 15 23 0.0 0.0 0.00 0.00 0.00 73 1010.3
20260505063038 15 43 0.0 0.0 0.00 0.00 0.00 73 1010.4
20260505062550 15 69 0.0 0.0 0.00 0.00 0.00 74 1010.3
20260505062032 15 34 0.0 0.0 0.00 0.00 0.00 74 1010.4
20260505061552 15 34 0.0 0.0 0.00 0.00 0.00 73 1010.4
20260505061018 15 35 0.0 0.0 0.00 0.00 0.00 74 1010.4
20260505060557 15 34 0.0 0.0 0.00 0.00 0.00 74 1010.4
20260505060018 15 34 0.0 0.0 0.00 0.00 0.00 73 1010.4
20260505055556 15 34 0.0 0.0 0.00 0.00 0.00 73 1010.4
20260505055018 15 34 0.0 0.0 0.00 0.00 0.00 72 1010.4
20260505054553 15 34 0.0 0.0 0.00 0.00 0.00 72 1010.4
20260505054012 16 35 0.0 0.0 0.00 0.00 0.00 71 1010.4
20260505053534 16 34 0.0 0.0 0.00 0.00 0.00 70 1010.5
20260505053009 16 34 0.0 0.0 0.00 0.00 0.00 69 1010.6
20260505052534 16 34 0.0 0.0 0.00 0.00 0.00 68 1010.6
20260505052056 17 54 0.0 0.0 0.00 0.00 0.00 68 1010.6
20260505051538 17 54 0.0 0.0 0.00 0.00 0.00 67 1010.6
20260505051057 17 55 0.0 0.0 0.00 0.00 0.00 67 1010.5
20260505050537 17 58 0.0 0.0 0.00 0.00 0.00 66 1010.6
20260505050108 17 18 0.0 0.0 0.00 0.00 0.00 66 1010.6
20260505041532 17 35 0.0 0.0 0.00 0.00 0.00 64 1010.5
20260505041010 17 56 0.0 0.0 0.00 0.00 0.00 64 1010.5
20260505040548 17 61 0.0 1.6 0.00 0.00 0.00 64 1010.5
20260505040026 17 44 0.0 1.6 0.00 0.00 0.00 64 1010.5
20260505035543 17 82 0.0 0.0 0.00 0.00 0.00 64 1010.4
20260505035003 17 68 0.0 0.0 0.00 0.00 0.00 64 1010.5
20260505034532 17 50 0.0 0.0 0.00 0.00 0.00 64 1010.5
20260505034012 17 36 0.0 0.0 0.00 0.00 0.00 63 1010.5
20260505033534 17 46 0.0 0.0 0.00 0.00 0.00 63 1010.4
20260505033051 18 358 0.0 0.0 0.00 0.00 0.00 63 1010.4
20260505032536 18 51 0.0 0.0 0.00 0.00 0.00 63 1010.4
20260505032053 18 312 0.0 0.0 0.00 0.00 0.00 62 1010.4
20260505031535 18 20 0.0 0.0 0.00 0.00 0.00 62 1010.4
20260505031055 18 354 0.0 0.0 0.00 0.00 0.00 61 1010.4
20260505030548 18 49 0.0 0.0 0.00 0.00 0.00 61 1010.4
20260505030012 18 47 0.0 0.0 0.00 0.00 0.00 60 1010.4
20260505025528 18 21 0.0 0.0 0.00 0.00 0.00 60 1010.3
20260505025048 18 334 0.0 0.0 0.00 0.00 0.00 60 1010.3
20260505024532 18 59 0.0 0.0 0.00 0.00 0.00 60 1010.4
20260505024050 18 59 0.0 0.0 0.00 0.00 0.00 60 1010.5
20260505023534 18 32 0.0 0.0 0.00 0.00 0.00 60 1010.5
20260505023051 18 36 0.0 1.6 0.00 0.00 0.00 60 1010.4
20260505022517 18 57 0.0 0.0 0.00 0.00 0.00 60 1010.4
20260505022054 18 53 0.0 0.0 0.00 0.00 0.00 60 1010.3
20260505021523 18 338 0.0 0.0 0.00 0.00 0.00 60 1010.3
20260505021053 18 73 0.0 0.0 0.00 0.00 0.00 61 1010.2
20260505020539 18 51 0.0 0.0 0.00 0.00 0.00 61 1010.2
20260505020109 17 63 0.0 0.0 0.00 0.00 0.00 62 1010.3
20260505020008 17 63 0.0 0.0 0.00 0.00 0.00 62 1010.3
20260505015544 17 105 0.0 0.0 0.00 0.00 0.00 62 1010.3
20260505015100 17 35 0.0 0.0 0.00 0.00 0.00 62 1010.3
20260505015004 17 35 0.0 0.0 0.00 0.00 0.00 62 1010.3
20260505014532 17 34 0.0 0.0 0.00 0.00 0.00 62 1010.3
20260505014005 17 35 0.0 0.0 0.00 0.00 0.00 63 1010.2
20260505013531 17 34 0.0 0.0 0.00 0.00 0.00 63 1010.0
20260505013018 17 34 0.0 0.0 0.00 0.00 0.00 63 1009.9
20260505012538 17 35 0.0 0.0 0.00 0.00 0.00 63 1009.9
20260505012055 17 35 0.0 0.0 0.00 0.00 0.00 61 1009.9
20260505011540 17 34 0.0 0.0 0.00 0.00 0.00 60 1010.0
20260505011011 18 35 0.0 0.0 0.00 0.00 0.00 58 1010.0
20260505010535 18 34 0.0 0.0 0.00 0.00 0.00 57 1009.9
20260505010107 19 35 0.0 0.0 0.00 0.00 0.00 55 1009.8
20260505005533 20 34 0.0 0.0 0.00 0.00 0.00 55 1009.8
20260505005021 20 35 0.0 0.0 0.00 0.00 0.00 54 1009.7
20260505004601 20 35 0.0 0.0 0.00 0.00 0.00 53 1009.7
20260505004036 20 56 0.0 0.0 0.00 0.00 0.00 53 1009.7
20260505003513 20 56 0.0 0.0 0.00 0.00 0.00 53 1009.6
20260505003051 20 56 0.0 0.0 0.00 0.00 0.00 52 1009.5
20260505002513 20 58 0.0 0.0 0.00 0.00 0.00 52 1009.5
20260505002047 21 57 0.0 0.0 0.00 0.00 0.00 51 1009.6
20260505001528 21 54 0.0 0.0 0.00 0.00 0.00 51 1009.6
20260505001011 21 68 0.0 0.0 0.00 0.00 0.00 51 1009.7
20260505000541 21 65 0.0 0.0 0.00 0.00 0.00 51 1009.6
20260505000028 21 51 0.0 0.0 0.00 0.00 0.00 50 1009.4
20260504235501 21 58 0.0 0.0 0.00 0.00 0.00 50 1009.4
20260504235041 21 81 0.0 0.0 0.00 0.00 0.00 50 1009.4
20260504234521 21 6 0.0 1.6 0.00 0.00 0.00 50 1009.4
20260504234059 21 12 0.0 1.6 0.00 0.00 0.00 49 1009.3
20260504234003 21 106 0.0 1.6 0.00 0.00 0.00 49 1009.4
20260504233539 21 356 0.0 1.6 0.00 0.00 0.00 49 1009.4
20260504233023 21 30 0.0 0.0 0.00 0.00 0.00 48 1009.4
20260504232514 22 94 0.0 1.6 0.00 0.00 0.00 48 1009.4
20260504232035 22 36 0.0 1.6 0.00 0.00 0.00 47 1009.3
20260504231519 22 22 0.0 6.4 0.00 0.00 0.00 47 1009.3
20260504231059 22 37 0.0 11.3 0.00 0.00 0.00 47 1009.3
20260504231004 22 2 0.0 11.3 0.00 0.00 0.00 46 1009.4
20260504230539 22 60 0.0 11.3 0.00 0.00 0.00 46 1009.4
20260504230047 22 359 0.0 9.7 0.00 0.00 0.00 46 1009.4
20260504225532 22 39 0.0 11.3 0.00 0.00 0.00 46 1009.4
20260504225056 22 323 0.0 16.1 0.00 0.00 0.00 46 1009.4
20260504224541 22 312 0.0 16.1 0.00 0.00 0.00 45 1009.5
20260504224056 22 322 0.0 9.7 0.00 0.00 0.00 45 1009.4
20260504223537 22 15 0.0 9.7 0.00 0.00 0.00 45 1009.3
20260504223055 22 25 0.0 14.5 0.00 0.00 0.00 45 1009.3
20260504222519 22 91 0.0 4.8 0.00 0.00 0.00 45 1009.3
20260504222058 22 60 0.0 9.7 0.00 0.00 0.00 45 1009.2
20260504221532 23 72 0.0 11.3 0.00 0.00 0.00 44 1009.1
20260504221059 23 340 0.0 11.3 0.00 0.00 0.00 44 1009.3
20260504221001 23 347 0.0 4.8 0.00 0.00 0.00 43 1009.3
20260504220526 23 304 0.0 4.8 0.00 0.00 0.00 43 1009.3
20260504220003 23 307 0.0 14.5 0.00 0.00 0.00 44 1009.2
20260504215528 23 79 0.0 6.4 0.00 0.00 0.00 44 1009.2
20260504215047 23 13 0.0 0.0 0.00 0.00 0.00 43 1009.2
20260504214530 23 96 0.0 1.6 0.00 0.00 0.00 44 1009.2
20260504214049 23 305 0.0 14.5 0.00 0.00 0.00 43 1009.3
20260504213515 23 51 0.0 14.5 0.00 0.00 0.00 43 1009.3
20260504213057 23 22 0.0 9.7 0.00 0.00 0.00 43 1009.2
20260504212533 23 302 0.0 8.0 0.00 0.00 0.00 43 1009.2
20260504212056 23 297 0.0 4.8 0.00 0.00 0.00 44 1009.3
20260504211539 23 307 0.0 3.2 0.00 0.00 0.00 43 1009.4
20260504211059 23 55 0.0 1.6 0.00 0.00 0.00 42 1009.4
20260504211001 23 332 0.0 1.6 0.00 0.00 0.00 42 1009.4
20260504210544 23 61 0.0 14.5 0.00 0.00 0.00 44 1009.4
20260504210005 23 55 0.0 14.5 0.00 0.00 0.00 42 1009.4
20260504205545 23 301 0.0 11.3 0.00 0.00 0.00 43 1009.4
20260504205005 24 37 0.0 8.0 0.00 0.00 0.00 42 1009.5
20260504204531 24 320 0.0 8.0 0.00 0.00 0.00 42 1009.4
20260504204005 25 304 0.0 1.6 0.00 0.00 0.00 42 1009.5
20260504203529 24 314 0.0 3.2 0.00 0.00 0.00 42 1009.4
20260504203047 24 300 0.0 3.2 0.00 0.00 0.00 43 1009.6
20260504202532 24 359 0.0 1.6 0.00 0.00 0.00 42 1009.9
20260504202049 24 338 0.0 1.6 0.00 0.00 0.00 42 1009.8
20260504201532 24 21 0.0 9.7 0.00 0.00 0.00 43 1009.9
20260504201051 24 54 0.0 4.8 0.00 0.00 0.00 43 1009.9
20260504200533 24 50 0.0 4.8 0.00 0.00 0.00 44 1010.0
20260504200013 24 310 0.0 3.2 0.00 0.00 0.00 43 1009.9
20260504195544 24 308 0.0 3.2 0.00 0.00 0.00 43 1010.0
20260504195023 24 321 0.0 11.3 0.00 0.00 0.00 43 1010.1
20260504194553 23 44 0.0 11.3 0.00 0.00 0.00 42 1010.2
20260504194011 24 46 0.0 12.9 0.00 0.00 0.00 42 1010.3
20260504193547 24 271 0.0 12.9 0.00 0.00 0.00 43 1010.5
20260504193016 24 55 0.0 1.6 0.00 0.00 0.00 42 1010.6
20260504192547 24 332 0.0 3.2 0.00 0.00 0.00 43 1010.6
20260504192007 23 45 0.0 9.7 0.00 0.00 0.00 42 1010.7
20260504191546 23 58 0.0 9.7 0.00 0.00 0.00 44 1010.8
20260504191009 24 319 0.0 3.2 0.00 0.00 0.00 44 1010.9
20260504190531 24 162 0.0 1.6 0.00 0.00 0.00 43 1011.0
20260504190007 24 337 0.0 4.8 0.00 0.00 0.00 44 1011.0
20260504185548 23 70 0.0 11.3 0.00 0.00 0.00 44 1011.1
20260504185058 23 16 0.0 11.3 0.00 0.00 0.00 43 1011.2
20260504185002 23 20 1.6 11.3 0.00 0.00 0.00 44 1011.2
20260504184553 23 264 0.0 11.3 0.00 0.00 0.00 44 1011.2
20260504184100 23 63 0.0 14.5 0.00 0.00 0.00 44 1011.3
20260504184003 23 303 0.0 14.5 0.00 0.00 0.00 43 1011.3
20260504183527 23 314 0.0 14.5 0.00 0.00 0.00 43 1011.5
20260504183012 23 16 0.0 6.4 0.00 0.00 0.00 44 1011.6
20260504182548 23 319 0.0 6.4 0.00 0.00 0.00 45 1011.6
20260504182007 23 12 0.0 8.0 0.00 0.00 0.00 44 1011.7
20260504181532 23 103 0.0 8.0 0.00 0.00 0.00 44 1011.8
20260504181007 23 82 0.0 6.4 0.00 0.00 0.00 44 1011.8
20260504180528 23 68 0.0 6.4 0.00 0.00 0.00 43 1011.8
20260504180010 23 53 0.0 9.7 0.00 0.00 0.00 43 1011.9
20260504175536 23 27 0.0 9.7 0.00 0.00 0.00 46 1012.0
20260504175019 22 23 0.0 3.2 0.00 0.00 0.00 44 1012.0
20260504174534 22 288 0.0 3.2 0.00 0.00 0.00 44 1012.1
20260504174015 22 95 0.0 11.3 0.00 0.00 0.00 43 1012.2
20260504173538 22 330 0.0 11.3 0.00 0.00 0.00 43 1012.2
20260504173019 22 323 0.0 4.8 0.00 0.00 0.00 43 1012.3
20260504172538 22 46 0.0 9.7 0.00 0.00 0.00 43 1012.3
20260504172017 22 54 0.0 9.7 0.00 0.00 0.00 42 1012.4
20260504171541 22 18 0.0 19.3 0.00 0.00 0.00 44 1012.4
20260504171059 22 15 0.0 19.3 0.00 0.00 0.00 45 1012.5
20260504171007 22 348 0.0 19.3 0.00 0.00 0.00 43 1012.5
20260504170543 22 90 0.0 3.2 0.00 0.00 0.00 45 1012.5
20260504151056 20 79 0.0 0.0 0.00 0.00 0.00 46 1013.9
20260504150524 19 20 0.0 0.0 0.00 0.00 0.00 45 1013.9